Time;durP1;ratioP1;P1;durP2;ratioP2;P2;SDS_P1;SDS_P2;PMS_P1;PMS_P2;Temp;Humidity;BMP_temperature;BMP_pressure;BME280_temperature;BME280_humidity;BME280_pressure;Samples;Min_cycle;Max_cycle;Signal;HPM_P1;HPM_P2
2022/05/15 00:00:41;;;;;;;7.38;3.60;;;18.80;52.80;;;;;;5057431;28;20032;-83
2022/05/15 00:03:13;;;;;;;6.28;3.50;;;18.80;52.90;;;;;;5053455;28;20045;-83
2022/05/15 00:05:40;;;;;;;5.10;3.30;;;18.80;53.10;;;;;;5054109;28;20033;-84
2022/05/15 00:08:08;;;;;;;5.15;2.95;;;18.80;53.10;;;;;;5053225;28;20040;-84
2022/05/15 00:10:34;;;;;;;5.95;3.50;;;18.80;52.80;;;;;;5035786;28;20029;-83
2022/05/15 00:12:59;;;;;;;7.47;2.90;;;18.80;52.50;;;;;;5035422;28;20036;-84
2022/05/15 00:15:44;;;;;;;7.72;3.15;;;18.80;52.80;;;;;;5052546;28;20078;-84
2022/05/15 00:18:10;;;;;;;5.47;2.83;;;18.70;53.10;;;;;;5053793;28;20430;-84
2022/05/15 00:20:39;;;;;;;5.28;2.80;;;18.70;52.80;;;;;;5035873;28;20358;-83
2022/05/15 00:23:06;;;;;;;8.15;2.42;;;18.60;53.10;;;;;;5053297;28;20021;-83
2022/05/15 00:25:32;;;;;;;6.38;2.50;;;18.60;53.20;;;;;;5054347;28;20033;-82
2022/05/15 00:27:59;;;;;;;6.43;2.58;;;18.60;53.20;;;;;;5052420;28;20481;-84
2022/05/15 00:30:25;;;;;;;9.27;2.40;;;18.50;53.30;;;;;;5053739;28;20024;-84
2022/05/15 00:32:51;;;;;;;8.25;2.58;;;18.40;53.60;;;;;;5035427;28;20047;-83
2022/05/15 00:35:17;;;;;;;6.57;2.75;;;18.30;54.00;;;;;;5052773;28;20055;-83
2022/05/15 00:37:42;;;;;;;4.97;2.17;;;18.20;54.30;;;;;;5035705;28;20025;-83
2022/05/15 00:40:09;;;;;;;4.35;2.15;;;18.20;55.10;;;;;;5034834;28;20322;-82
2022/05/15 00:42:35;;;;;;;5.75;2.22;;;18.10;55.20;;;;;;5053668;28;20025;-82
2022/05/15 00:45:02;;;;;;;5.25;2.33;;;18.00;55.50;;;;;;5052923;28;20486;-82
2022/05/15 00:47:28;;;;;;;7.03;2.55;;;18.00;55.80;;;;;;5035401;28;20027;-83
2022/05/15 00:49:55;;;;;;;5.13;2.38;;;18.00;55.90;;;;;;5051720;28;20377;-82
2022/05/15 00:52:26;;;;;;;7.18;2.40;;;18.00;56.20;;;;;;5053144;28;20086;-83
2022/05/15 00:55:06;;;;;;;5.97;2.53;;;18.00;56.50;;;;;;5053325;28;20096;-83
2022/05/15 00:57:40;;;;;;;5.55;2.47;;;17.90;56.70;;;;;;5035666;28;20033;-83
2022/05/15 01:00:09;;;;;;;4.88;2.63;;;18.00;56.90;;;;;;5053023;28;20056;-83
2022/05/15 01:02:39;;;;;;;3.63;2.00;;;17.90;57.00;;;;;;5053727;28;20045;-83
2022/05/15 01:05:06;;;;;;;6.05;2.58;;;17.90;57.40;;;;;;5034718;28;20033;-83
2022/05/15 01:07:32;;;;;;;4.65;2.22;;;17.80;57.60;;;;;;5052883;28;20174;-83
2022/05/15 01:10:00;;;;;;;3.90;2.40;;;17.90;57.90;;;;;;5052459;28;20029;-84
2022/05/15 01:12:27;;;;;;;4.60;2.58;;;17.80;58.00;;;;;;5052915;28;20025;-83
2022/05/15 01:14:53;;;;;;;6.20;2.47;;;17.80;58.20;;;;;;5052893;28;20039;-82
2022/05/15 01:17:19;;;;;;;7.10;2.75;;;17.80;58.40;;;;;;5052481;28;20036;-83
2022/05/15 01:19:45;;;;;;;7.35;3.08;;;17.80;58.80;;;;;;5053321;28;20433;-83
2022/05/15 01:22:15;;;;;;;5.15;2.53;;;17.70;59.00;;;;;;5052149;28;20021;-84
2022/05/15 01:24:41;;;;;;;4.20;2.35;;;17.70;59.10;;;;;;5052873;28;20098;-83
2022/05/15 01:27:10;;;;;;;5.78;2.72;;;17.70;59.20;;;;;;5034286;28;20029;-83
2022/05/15 01:29:41;;;;;;;5.60;2.70;;;17.70;59.30;;;;;;5052545;28;20056;-83
2022/05/15 01:32:07;;;;;;;;;;;17.70;59.40;;;;;;5034223;28;20025;-83
2022/05/15 01:34:33;;;;;;;5.13;2.72;;;17.70;59.60;;;;;;5050913;28;20289;-83
2022/05/15 01:36:59;;;;;;;8.02;3.20;;;17.70;59.50;;;;;;5051029;28;20025;-82
2022/05/15 01:39:27;;;;;;;4.80;3.05;;;17.70;59.40;;;;;;5052608;28;20024;-83
2022/05/15 01:41:53;;;;;;;6.47;2.55;;;17.70;59.30;;;;;;5034151;28;20028;-82
2022/05/15 01:44:18;;;;;;;6.40;2.78;;;17.70;59.70;;;;;;5051332;28;20025;-83
2022/05/15 01:46:44;;;;;;;8.60;2.63;;;17.70;59.80;;;;;;5059208;28;20542;-83
2022/05/15 01:49:10;;;;;;;7.93;3.05;;;17.70;59.80;;;;;;5070648;28;20104;-83
2022/05/15 01:51:39;;;;;;;6.72;3.20;;;17.70;60.00;;;;;;5072311;28;20165;-84
2022/05/15 01:54:05;;;;;;;4.03;2.40;;;17.70;60.50;;;;;;5062798;28;20457;-83
2022/05/15 01:56:30;;;;;;;6.75;2.97;;;17.70;60.50;;;;;;5052670;28;20032;-83
2022/05/15 01:58:57;;;;;;;4.75;2.92;;;17.70;60.60;;;;;;5052420;28;20482;-83
2022/05/15 02:01:23;;;;;;;7.78;2.90;;;17.70;60.90;;;;;;5033692;28;20059;-84
2022/05/15 02:03:49;;;;;;;7.78;3.20;;;17.60;61.40;;;;;;5034525;28;20021;-84
2022/05/15 02:06:15;;;;;;;6.20;3.08;;;17.60;61.50;;;;;;5034585;28;20044;-84
2022/05/15 02:08:41;;;;;;;6.30;3.50;;;17.60;61.90;;;;;;5036107;28;20359;-82
2022/05/15 02:11:07;;;;;;;4.13;3.00;;;17.50;62.50;;;;;;5052384;28;20101;-83
2022/05/15 02:13:51;;;;;;;6.70;3.08;;;17.50;62.80;;;;;;5034684;28;20456;-83
2022/05/15 02:16:17;;;;;;;9.40;3.30;;;17.50;62.90;;;;;;5051473;28;20057;-84
2022/05/15 02:18:42;;;;;;;6.53;3.28;;;17.40;63.20;;;;;;5034209;28;20059;-83
2022/05/15 02:21:08;;;;;;;4.65;2.97;;;17.40;63.40;;;;;;5057330;28;20025;-82
2022/05/15 02:23:34;;;;;;;5.93;2.95;;;17.30;63.90;;;;;;5068511;28;20055;-83
2022/05/15 02:25:59;;;;;;;5.57;3.30;;;17.10;64.40;;;;;;5057970;28;20112;-83
2022/05/15 02:28:25;;;;;;;9.70;2.90;;;17.00;64.90;;;;;;5034276;28;20186;-83
2022/05/15 02:30:51;;;;;;;6.55;3.55;;;17.00;65.30;;;;;;5050562;28;20122;-83
2022/05/15 02:33:17;;;;;;;8.55;3.10;;;16.90;65.40;;;;;;5033292;28;20025;-83
2022/05/15 02:35:44;;;;;;;4.75;2.90;;;16.80;65.70;;;;;;5051774;28;20044;-83
2022/05/15 02:38:09;;;;;;;4.85;2.60;;;16.80;65.50;;;;;;5033500;28;20029;-83
2022/05/15 02:40:35;;;;;;;3.92;2.53;;;16.70;65.90;;;;;;5034145;28;20064;-83
2022/05/15 02:43:01;;;;;;;4.55;2.50;;;16.60;65.50;;;;;;5051561;28;20029;-83
2022/05/15 02:45:27;;;;;;;5.78;2.55;;;16.60;65.60;;;;;;5051560;28;20407;-83
2022/05/15 02:47:54;;;;;;;4.50;2.65;;;16.60;65.90;;;;;;5051953;28;20051;-83
2022/05/15 02:53:24;;;;;;;6.75;2.40;;;16.40;65.60;;;;;;5051280;28;20067;-85
2022/05/15 02:55:51;;;;;;;4.40;2.17;;;16.50;65.20;;;;;;5033274;28;20053;-84
2022/05/15 02:58:16;;;;;;;6.13;1.90;;;16.40;65.00;;;;;;5051978;28;20029;-84
2022/05/15 03:00:42;;;;;;;5.05;2.20;;;16.40;65.40;;;;;;5050213;28;20032;-83
2022/05/15 03:03:07;;;;;;;5.93;2.33;;;16.40;65.00;;;;;;5053274;28;20441;-83
2022/05/15 03:05:33;;;;;;;4.63;1.90;;;16.40;65.10;;;;;;5037114;28;20543;-84
2022/05/15 03:08:00;;;;;;;4.43;2.35;;;16.30;65.20;;;;;;5055715;28;20025;-83
2022/05/15 03:10:45;;;;;;;4.55;2.25;;;16.30;65.70;;;;;;5036947;28;20411;-84
2022/05/15 03:13:10;;;;;;;3.47;1.90;;;16.30;65.90;;;;;;5055412;28;20489;-83
2022/05/15 03:15:37;;;;;;;6.50;2.10;;;16.20;65.70;;;;;;5055368;28;20029;-84
2022/05/15 03:18:03;;;;;;;2.95;1.90;;;16.20;65.90;;;;;;5054859;28;20021;-84
2022/05/15 03:20:29;;;;;;;3.90;1.98;;;16.20;66.00;;;;;;5036493;28;20021;-83
2022/05/15 03:22:55;;;;;;;4.75;2.60;;;16.20;66.30;;;;;;5066300;28;20089;-83
2022/05/15 03:25:21;;;;;;;5.82;2.42;;;16.20;66.70;;;;;;5074416;28;20512;-84
2022/05/15 03:27:47;;;;;;;5.50;2.50;;;16.20;66.50;;;;;;5060318;28;20030;-83
2022/05/15 03:30:14;;;;;;;4.20;2.25;;;16.20;66.60;;;;;;5067346;28;20394;-83
2022/05/15 03:32:40;;;;;;;3.95;2.17;;;16.20;67.00;;;;;;5058429;28;20040;-82
2022/05/15 03:35:08;;;;;;;5.55;2.50;;;16.20;67.20;;;;;;5045684;28;20039;-83
2022/05/15 03:37:34;;;;;;;4.03;2.10;;;16.20;67.40;;;;;;5068053;28;20037;-83
2022/05/15 03:40:00;;;;;;;3.50;2.13;;;16.30;67.20;;;;;;5054722;28;20086;-83
2022/05/15 03:42:26;;;;;;;7.70;2.22;;;16.30;67.10;;;;;;5053003;28;20124;-83
2022/05/15 03:44:53;;;;;;;6.70;2.42;;;16.30;67.10;;;;;;5036520;28;20049;-83
2022/05/15 03:47:19;;;;;;;4.40;1.90;;;16.30;67.00;;;;;;5054235;28;20043;-83
2022/05/15 03:49:45;;;;;;;4.78;2.42;;;16.30;67.40;;;;;;5069209;28;20020;-83
2022/05/15 03:52:11;;;;;;;3.53;2.10;;;16.30;67.30;;;;;;5074192;28;20355;-83
2022/05/15 03:54:38;;;;;;;4.20;2.38;;;16.30;67.10;;;;;;5074596;28;20060;-83
2022/05/15 03:57:04;;;;;;;6.25;2.50;;;16.40;66.90;;;;;;5074888;28;20109;-83
2022/05/15 03:59:36;;;;;;;7.78;2.30;;;16.30;66.80;;;;;;5056385;28;20032;-83
2022/05/15 04:02:04;;;;;;;3.03;2.30;;;16.30;66.70;;;;;;5072045;28;20051;-82
2022/05/15 04:04:31;;;;;;;4.70;2.28;;;16.30;67.30;;;;;;5071893;28;20078;-82
2022/05/15 04:06:57;;;;;;;5.75;2.63;;;16.30;67.30;;;;;;5056580;28;20130;-82
2022/05/15 04:09:24;;;;;;;6.63;2.63;;;16.40;67.30;;;;;;5073933;28;20482;-83
2022/05/15 04:11:50;;;;;;;5.75;2.20;;;16.40;67.00;;;;;;5056240;28;20025;-83
2022/05/15 04:14:16;;;;;;;5.72;2.40;;;16.50;67.00;;;;;;5073050;28;20169;-83
2022/05/15 04:16:43;;;;;;;4.47;2.30;;;16.60;66.60;;;;;;5072938;28;20039;-84
2022/05/15 04:19:09;;;;;;;6.40;2.15;;;16.60;66.80;;;;;;5072875;28;20033;-84
2022/05/15 04:21:40;;;;;;;4.07;2.33;;;16.70;66.60;;;;;;5055297;28;20029;-85
2022/05/15 04:24:09;;;;;;;2.80;2.28;;;17.00;66.10;;;;;;5075036;28;20554;-82
2022/05/15 04:26:36;;;;;;;4.18;2.13;;;17.10;65.80;;;;;;5056045;28;20040;-82
2022/05/15 04:29:02;;;;;;;5.28;2.33;;;17.20;64.90;;;;;;5074893;28;20357;-83
2022/05/15 04:31:28;;;;;;;5.55;2.30;;;17.40;65.20;;;;;;5073817;28;20031;-84
2022/05/15 04:33:54;;;;;;;4.38;2.30;;;17.50;64.40;;;;;;5074544;28;20099;-82
2022/05/15 04:36:19;;;;;;;5.20;2.70;;;17.60;64.00;;;;;;5071753;28;20032;-83
2022/05/15 04:39:03;;;;;;;4.72;2.53;;;17.80;63.50;;;;;;5055428;28;20025;-83
2022/05/15 04:41:29;;;;;;;4.55;2.60;;;17.90;62.80;;;;;;5040477;28;20120;-83
2022/05/15 04:43:55;;;;;;;6.20;2.40;;;18.00;62.30;;;;;;5073437;28;20056;-83
2022/05/15 04:46:22;;;;;;;6.53;2.72;;;18.10;62.00;;;;;;5072634;28;20109;-83
2022/05/15 04:48:48;;;;;;;4.85;2.22;;;18.20;61.30;;;;;;5055417;28;20116;-83
2022/05/15 04:51:14;;;;;;;6.03;2.70;;;18.30;61.50;;;;;;5072342;28;20024;-83
2022/05/15 04:53:39;;;;;;;4.80;2.33;;;18.50;60.50;;;;;;5072981;28;20438;-82
2022/05/15 04:56:05;;;;;;;5.93;2.55;;;18.70;60.00;;;;;;5073298;28;20104;-82
2022/05/15 04:58:31;;;;;;;6.30;2.33;;;18.90;59.40;;;;;;5072917;28;20457;-82
2022/05/15 05:00:56;;;;;;;4.03;2.42;;;19.10;59.20;;;;;;5054976;28;20051;-82
2022/05/15 05:03:22;;;;;;;7.60;2.80;;;19.30;59.00;;;;;;5072478;28;20028;-82
2022/05/15 05:05:48;;;;;;;7.00;2.53;;;19.50;58.60;;;;;;5073131;28;20047;-83
2022/05/15 05:08:13;;;;;;;4.38;2.30;;;19.70;57.10;;;;;;5073731;28;20421;-83
2022/05/15 05:10:40;;;;;;;5.00;2.20;;;19.90;56.70;;;;;;5070942;28;20177;-83
2022/05/15 05:13:06;;;;;;;4.75;2.83;;;20.10;56.40;;;;;;5055489;28;20025;-82
2022/05/15 05:15:33;;;;;;;5.65;2.60;;;20.30;55.50;;;;;;5072455;28;20036;-82
2022/05/15 05:17:59;;;;;;;5.28;2.25;;;20.50;54.80;;;;;;5069818;28;20064;-82
2022/05/15 05:20:25;;;;;;;3.53;2.15;;;20.80;54.10;;;;;;5072388;28;20393;-83
2022/05/15 05:22:51;;;;;;;4.43;2.33;;;21.40;53.10;;;;;;5072833;28;20024;-83
2022/05/15 05:25:18;;;;;;;3.75;2.35;;;22.50;51.60;;;;;;5053451;28;20044;-84
2022/05/15 05:27:45;;;;;;;3.75;2.28;;;23.80;48.30;;;;;;5046428;28;20457;-83
2022/05/15 05:30:17;;;;;;;4.13;2.15;;;25.20;44.70;;;;;;5063091;28;20060;-83
2022/05/15 05:32:43;;;;;;;4.45;1.92;;;26.40;41.90;;;;;;5068643;28;20036;-84
2022/05/15 05:35:10;;;;;;;3.67;2.00;;;27.40;40.00;;;;;;5066655;28;20028;-83
2022/05/15 05:37:36;;;;;;;3.72;1.90;;;28.40;38.20;;;;;;5072100;28;20032;-83
2022/05/15 05:40:02;;;;;;;3.88;1.90;;;29.30;36.70;;;;;;5054687;28;20033;-84
2022/05/15 05:42:28;;;;;;;4.07;2.10;;;30.00;35.40;;;;;;5089970;28;20031;-83
2022/05/15 05:44:54;;;;;;;3.75;2.28;;;30.70;34.50;;;;;;5076867;28;20037;-83
2022/05/15 05:47:27;;;;;;;3.13;2.08;;;31.40;33.50;;;;;;5036877;28;20410;-83
2022/05/15 05:49:54;;;;;;;5.03;2.50;;;32.30;32.10;;;;;;5066155;28;20047;-83
2022/05/15 05:52:20;;;;;;;4.18;2.15;;;33.00;31.50;;;;;;5071851;28;20036;-82
2022/05/15 05:54:46;;;;;;;3.13;1.75;;;33.80;30.80;;;;;;5072174;28;20025;-82
2022/05/15 05:57:12;;;;;;;2.75;2.05;;;34.50;30.00;;;;;;5072538;28;20024;-82
2022/05/15 05:59:39;;;;;;;3.75;1.75;;;35.10;29.80;;;;;;5068951;28;20029;-82
2022/05/15 06:02:06;;;;;;;4.53;2.15;;;35.60;29.10;;;;;;5073016;28;20053;-84
2022/05/15 06:04:46;;;;;;;2.75;1.80;;;35.90;28.80;;;;;;5072679;28;20028;-82
2022/05/15 06:07:23;;;;;;;4.30;1.95;;;36.50;28.30;;;;;;5093255;28;20017;-82
2022/05/15 06:09:50;;;;;;;3.90;1.80;;;37.00;28.00;;;;;;5084983;28;20024;-84
2022/05/15 06:12:19;;;;;;;5.40;1.85;;;37.30;27.60;;;;;;5063409;28;20104;-83
2022/05/15 06:14:45;;;;;;;4.57;2.30;;;37.40;27.40;;;;;;5051620;28;20028;-84
2022/05/15 06:17:11;;;;;;;6.25;2.20;;;37.60;27.30;;;;;;5066597;28;20041;-84
2022/05/15 06:19:39;;;;;;;3.47;2.10;;;37.30;27.20;;;;;;5071098;28;20176;-83
2022/05/15 06:22:05;;;;;;;2.50;1.98;;;36.60;27.60;;;;;;5072518;28;20069;-84
2022/05/15 06:24:31;;;;;;;4.90;2.47;;;35.40;27.90;;;;;;5070900;28;20040;-83
2022/05/15 06:26:59;;;;;;;8.45;2.30;;;34.40;28.70;;;;;;5071830;28;20452;-83
2022/05/15 06:29:26;;;;;;;5.20;2.38;;;33.40;29.00;;;;;;5053590;28;20029;-85
2022/05/15 06:31:52;;;;;;;4.22;2.60;;;32.30;30.20;;;;;;5072601;28;20035;-85
2022/05/15 06:34:18;;;;;;;3.67;2.65;;;31.50;31.80;;;;;;5054773;28;20123;-84
2022/05/15 06:36:43;;;;;;;4.50;2.63;;;31.10;32.70;;;;;;5072992;28;20040;-85
2022/05/15 06:39:10;;;;;;;4.78;2.70;;;30.70;33.50;;;;;;5057466;28;20032;-85
2022/05/15 06:41:36;;;;;;;5.55;3.10;;;30.40;33.70;;;;;;5056099;28;20024;-84
2022/05/15 06:44:02;;;;;;;8.60;3.15;;;30.20;34.30;;;;;;5038311;28;20094;-84
2022/05/15 06:46:28;;;;;;;5.75;2.65;;;30.40;34.60;;;;;;5055247;28;20461;-84
2022/05/15 06:48:54;;;;;;;6.75;2.90;;;30.60;33.50;;;;;;5055885;28;20035;-84
2022/05/15 06:51:19;;;;;;;4.95;2.45;;;30.90;33.40;;;;;;5055544;28;20021;-83
2022/05/15 06:53:47;;;;;;;6.50;2.47;;;31.30;33.50;;;;;;5054512;28;20056;-84
2022/05/15 06:58:58;;;;;;;6.80;2.30;;;32.00;31.90;;;;;;5055712;28;20075;-83
2022/05/15 07:01:24;;;;;;;9.88;2.75;;;32.50;31.50;;;;;;5055051;28;20437;-83
2022/05/15 07:03:49;;;;;;;8.52;2.50;;;32.60;31.20;;;;;;5055931;28;20047;-85
2022/05/15 07:06:15;;;;;;;6.05;2.05;;;32.50;31.10;;;;;;5038434;28;20071;-83
2022/05/15 07:08:41;;;;;;;5.28;2.22;;;32.20;30.10;;;;;;5071506;28;20096;-84
2022/05/15 07:11:10;;;;;;;4.10;2.22;;;31.60;30.50;;;;;;5057157;28;20428;-83
2022/05/15 07:13:36;;;;;;;4.43;2.13;;;31.50;31.20;;;;;;5074307;28;20479;-82
2022/05/15 07:16:02;;;;;;;5.80;2.30;;;31.50;30.90;;;;;;5075242;28;20043;-82
2022/05/15 07:18:29;;;;;;;5.28;2.50;;;31.60;30.50;;;;;;5073191;28;20518;-82
2022/05/15 07:20:55;;;;;;;5.25;2.33;;;31.70;30.50;;;;;;5075030;28;20449;-83
2022/05/15 07:23:21;;;;;;;8.43;2.38;;;31.60;29.80;;;;;;5075151;28;20027;-84
2022/05/15 07:25:48;;;;;;;4.43;2.28;;;31.60;30.00;;;;;;5074319;28;20032;-84
2022/05/15 07:28:14;;;;;;;10.05;2.17;;;31.80;30.10;;;;;;5074890;28;20062;-83
2022/05/15 07:30:40;;;;;;;4.88;2.15;;;32.00;29.40;;;;;;5074469;28;20459;-83
2022/05/15 07:33:07;;;;;;;4.88;2.10;;;32.10;29.40;;;;;;5090039;28;20050;-83
2022/05/15 07:35:33;;;;;;;4.75;2.47;;;32.20;29.50;;;;;;5094839;28;20042;-84
2022/05/15 07:37:59;;;;;;;5.70;2.10;;;32.10;29.50;;;;;;5095247;28;20461;-83
2022/05/15 07:40:25;;;;;;;7.88;2.40;;;32.00;29.70;;;;;;5094710;28;20054;-82
2022/05/15 07:42:50;;;;;;;3.45;2.10;;;32.00;29.70;;;;;;5094499;28;20060;-81
2022/05/15 07:45:17;;;;;;;5.18;2.10;;;32.00;29.90;;;;;;5094684;28;20068;-83
2022/05/15 07:47:43;;;;;;;9.82;2.45;;;32.10;29.70;;;;;;5093801;28;20032;-82
2022/05/15 07:50:10;;;;;;;6.78;2.00;;;32.00;29.60;;;;;;5094443;28;20020;-83
2022/05/15 07:52:36;;;;;;;6.43;2.10;;;32.00;29.90;;;;;;5075970;28;20049;-83
2022/05/15 07:55:05;;;;;;;4.07;2.15;;;32.10;29.50;;;;;;5076471;28;20119;-83
2022/05/15 07:57:34;;;;;;;8.27;2.40;;;32.30;29.70;;;;;;5075942;28;20025;-82
2022/05/15 08:00:00;;;;;;;4.70;2.05;;;32.40;30.00;;;;;;5076151;28;20024;-82
2022/05/15 08:02:26;;;;;;;5.40;2.10;;;32.80;29.60;;;;;;5094270;28;20040;-84
2022/05/15 08:10:20;;;;;;;7.38;2.05;;;33.50;29.00;;;;;;5073867;28;20162;-82
2022/05/15 08:12:46;;;;;;;6.05;2.20;;;33.70;28.80;;;;;;5073227;28;20033;-82
2022/05/15 08:15:12;;;;;;;5.47;2.40;;;33.50;28.20;;;;;;5072771;28;20036;-82
2022/05/15 08:17:37;;;;;;;5.80;2.10;;;33.20;28.50;;;;;;5055118;28;20025;-83
2022/05/15 08:25:33;;;;;;;7.00;2.38;;;32.40;29.70;;;;;;5078444;28;20599;-83
2022/05/15 08:27:59;;;;;;;4.15;2.28;;;32.40;28.50;;;;;;5057865;28;20046;-83
2022/05/15 08:30:25;;;;;;;8.10;2.10;;;31.80;28.60;;;;;;5057320;28;20028;-83
2022/05/15 08:32:57;;;;;;;8.75;2.13;;;31.60;29.20;;;;;;5074828;28;20074;-82
2022/05/15 08:35:23;;;;;;;9.38;2.63;;;31.40;29.90;;;;;;5075087;28;20040;-83
2022/05/15 08:37:48;;;;;;;4.15;2.30;;;31.20;29.40;;;;;;5055294;28;20453;-83
2022/05/15 08:40:14;;;;;;;9.00;2.40;;;31.30;30.00;;;;;;5055372;28;20035;-82
2022/05/15 08:42:54;;;;;;;6.90;2.05;;;31.00;29.50;;;;;;5071205;28;20078;-83
2022/05/15 08:45:24;;;;;;;5.22;1.95;;;30.90;31.00;;;;;;5075905;28;20049;-83
2022/05/15 08:48:01;;;;;;;3.92;2.30;;;31.00;30.90;;;;;;5073340;28;20464;-83
2022/05/15 08:50:33;;;;;;;5.30;2.20;;;30.70;30.40;;;;;;5054936;28;20051;-83
2022/05/15 08:53:06;;;;;;;5.30;2.10;;;30.30;31.50;;;;;;5073165;28;20032;-82
2022/05/15 08:55:43;;;;;;;9.60;2.10;;;29.90;31.90;;;;;;5072824;28;20036;-84
2022/05/15 08:58:47;;;;;;;5.18;2.65;;;29.80;32.30;;;;;;5056100;28;20031;-84
2022/05/15 09:01:17;;;;;;;4.68;2.33;;;29.40;32.30;;;;;;5073423;28;20075;-84
2022/05/15 09:03:43;;;;;;;5.15;2.55;;;29.10;33.40;;;;;;5073059;28;20115;-83
2022/05/15 09:06:29;;;;;;;8.38;2.80;;;28.90;33.90;;;;;;5073976;28;20534;-84
2022/05/15 09:08:58;;;;;;;3.17;1.80;;;28.80;33.80;;;;;;5074287;28;20074;-83
2022/05/15 09:11:32;;;;;;;6.35;2.00;;;28.40;30.50;;;;;;5055942;28;20120;-83
2022/05/15 09:14:08;;;;;;;8.75;2.42;;;28.30;30.40;;;;;;5073487;28;20076;-84
2022/05/15 09:16:37;;;;;;;5.32;2.17;;;28.20;31.90;;;;;;5055174;28;20441;-84
2022/05/15 09:19:06;;;;;;;6.80;2.67;;;28.10;32.90;;;;;;5073434;28;20480;-83
2022/05/15 09:21:32;;;;;;;5.40;1.75;;;28.00;33.30;;;;;;5073110;28;20178;-83
2022/05/15 09:24:06;;;;;;;8.18;3.50;;;27.80;32.70;;;;;;5075640;28;20025;-83
2022/05/15 09:26:44;;;;;;;4.20;2.20;;;27.60;31.70;;;;;;5073037;28;20076;-83
2022/05/15 09:29:27;;;;;;;7.00;2.03;;;27.40;32.60;;;;;;5074272;28;20067;-83
2022/05/15 09:31:53;;;;;;;4.13;2.25;;;27.30;32.90;;;;;;5054967;28;20032;-84
2022/05/15 09:34:28;;;;;;;8.82;2.45;;;27.10;34.10;;;;;;5072580;28;20048;-83
2022/05/15 09:39:44;;;;;;;7.90;2.20;;;27.10;34.60;;;;;;5071943;28;20119;-83
2022/05/15 09:45:19;;;;;;;4.40;1.80;;;27.00;33.60;;;;;;5072430;28;20401;-83
2022/05/15 09:48:03;;;;;;;5.53;2.17;;;27.20;35.00;;;;;;5074318;28;20024;-83
2022/05/15 09:50:46;;;;;;;5.63;1.90;;;27.20;34.00;;;;;;5072593;28;20034;-84
2022/05/15 09:53:23;;;;;;;5.57;2.15;;;27.20;34.70;;;;;;5071823;28;20035;-84
2022/05/15 09:56:13;;;;;;;8.95;1.83;;;27.30;32.40;;;;;;5071955;28;20032;-83
2022/05/15 09:59:10;;;;;;;6.05;2.20;;;27.20;32.80;;;;;;5053393;28;20031;-83
2022/05/15 10:01:37;;;;;;;7.00;2.78;;;27.30;34.30;;;;;;5053152;28;20166;-85
2022/05/15 10:04:07;;;;;;;8.90;2.17;;;27.40;33.20;;;;;;5068244;28;20029;-75
2022/05/15 10:06:48;;;;;;;5.40;2.08;;;27.40;33.40;;;;;;5071012;28;20051;-76
2022/05/15 10:09:25;;;;;;;3.55;2.10;;;27.30;31.70;;;;;;5071097;28;20028;-76
2022/05/15 10:11:59;;;;;;;5.15;2.35;;;27.30;32.70;;;;;;5070447;28;20025;-76
2022/05/15 10:14:34;;;;;;;5.70;1.80;;;27.30;32.90;;;;;;5071554;28;20028;-76
2022/05/15 10:17:00;;;;;;;6.60;2.47;;;27.30;32.80;;;;;;5071472;28;20540;-75
2022/05/15 10:19:55;;;;;;;6.38;1.88;;;27.40;32.90;;;;;;5071549;28;20028;-77
2022/05/15 10:23:03;;;;;;;6.32;2.10;;;27.40;33.00;;;;;;5071476;28;20032;-76
2022/05/15 10:25:36;;;;;;;6.28;2.20;;;27.50;33.40;;;;;;5071666;28;20039;-76
2022/05/15 10:28:39;;;;;;;6.32;2.15;;;27.40;33.00;;;;;;5071801;28;20025;-76
2022/05/15 10:31:08;;;;;;;8.43;2.63;;;27.50;33.90;;;;;;5071781;28;20059;-78
2022/05/15 10:33:38;;;;;;;7.35;1.90;;;27.60;33.80;;;;;;5071901;28;20028;-76
2022/05/15 10:36:37;;;;;;;4.70;2.10;;;27.70;33.90;;;;;;5071533;28;20421;-76
2022/05/15 10:39:26;;;;;;;4.90;1.95;;;27.70;32.70;;;;;;5071374;28;20079;-78
2022/05/15 10:42:23;;;;;;;4.90;2.20;;;27.70;33.40;;;;;;5056653;28;20071;-77
2022/05/15 10:44:48;;;;;;;6.47;2.30;;;27.60;33.90;;;;;;5070597;28;20051;-74
2022/05/15 10:47:19;;;;;;;8.27;2.15;;;27.50;34.60;;;;;;5071266;28;20032;-76
2022/05/15 10:50:03;;;;;;;;;;;27.60;35.40;;;;;;5071019;28;20123;-75
2022/05/15 10:53:01;;;;;;;6.60;2.10;;;27.60;34.70;;;;;;5071204;28;19904;-76
2022/05/15 10:58:32;;;;;;;5.60;2.00;;;27.60;34.90;;;;;;5070908;28;20341;-76
2022/05/15 11:01:08;;;;;;;5.38;2.30;;;27.70;35.00;;;;;;5069843;28;20032;-78
2022/05/15 11:03:48;;;;;;;5.50;2.42;;;27.70;35.10;;;;;;5071389;28;20036;-75
2022/05/15 11:06:31;;;;;;;5.07;2.17;;;27.60;35.90;;;;;;5071246;28;20033;-77
2022/05/15 11:09:15;;;;;;;8.65;2.90;;;27.60;35.00;;;;;;5070699;28;20595;-76
2022/05/15 11:11:59;;;;;;;9.05;2.20;;;27.60;34.70;;;;;;5070277;28;20031;-76
2022/05/15 11:14:27;;;;;;;5.07;2.08;;;27.60;35.20;;;;;;5071061;28;20123;-75
2022/05/15 11:17:16;;;;;;;5.45;2.40;;;27.50;35.10;;;;;;5070434;28;20029;-76
2022/05/15 11:19:47;;;;;;;6.85;2.40;;;27.40;34.90;;;;;;5073030;28;20060;-76
2022/05/15 11:22:19;;;;;;;;;;;27.30;35.30;;;;;;5071335;28;20066;-76
2022/05/15 11:25:24;;;;;;;6.50;2.53;;;27.20;35.90;;;;;;5073217;28;19929;-77
2022/05/15 11:27:58;;;;;;;5.45;2.47;;;27.20;35.70;;;;;;5074073;28;20033;-77
2022/05/15 11:30:26;;;;;;;4.82;2.33;;;27.30;36.50;;;;;;5074633;28;20021;-76
2022/05/15 11:32:52;;;;;;;8.02;2.25;;;27.40;36.40;;;;;;5074051;28;20029;-77
2022/05/15 11:35:17;;;;;;;7.35;2.42;;;27.40;35.70;;;;;;5074467;28;20029;-76
2022/05/15 11:38:02;;;;;;;9.10;2.55;;;27.40;35.50;;;;;;5073703;28;20028;-76
2022/05/15 11:40:28;;;;;;;8.75;2.40;;;27.40;35.80;;;;;;5074804;28;20097;-77
2022/05/15 11:42:54;;;;;;;5.63;2.42;;;27.30;35.30;;;;;;5075063;28;20529;-76
2022/05/15 11:45:29;;;;;;;5.80;2.30;;;27.40;36.40;;;;;;5074517;28;20111;-76
2022/05/15 11:48:11;;;;;;;5.38;2.20;;;27.30;35.10;;;;;;5073846;28;20017;-75
2022/05/15 11:51:03;;;;;;;11.50;2.70;;;27.40;36.30;;;;;;5074393;28;20064;-76
2022/05/15 11:53:47;;;;;;;4.95;2.08;;;27.40;35.20;;;;;;5074308;28;20107;-75
2022/05/15 11:56:25;;;;;;;8.52;2.03;;;27.40;34.90;;;;;;5074000;28;20025;-76
2022/05/15 11:58:58;;;;;;;5.47;2.03;;;27.40;36.10;;;;;;5073523;28;20536;-76
2022/05/15 12:01:38;;;;;;;8.07;2.05;;;27.40;34.90;;;;;;5073863;28;20110;-76
2022/05/15 12:04:07;;;;;;;7.47;2.30;;;27.30;34.90;;;;;;5070298;28;20024;-76
2022/05/15 12:06:45;;;;;;;6.82;1.98;;;27.10;34.90;;;;;;5073959;28;20119;-75
2022/05/15 12:09:16;;;;;;;5.82;2.17;;;27.00;35.00;;;;;;5074200;28;20021;-77
2022/05/15 12:11:46;;;;;;;4.60;1.98;;;26.90;35.00;;;;;;5073307;28;20043;-78
2022/05/15 12:14:28;;;;;;;7.80;2.35;;;26.80;35.70;;;;;;5074569;28;20037;-77
2022/05/15 12:16:57;;;;;;;7.13;2.30;;;26.70;35.80;;;;;;5073489;28;20025;-78
2022/05/15 12:19:29;;;;;;;5.88;1.92;;;26.70;36.00;;;;;;5073947;28;20032;-76
2022/05/15 12:21:59;;;;;;;4.97;2.28;;;26.70;35.90;;;;;;5073374;28;20027;-76
2022/05/15 12:24:32;;;;;;;6.00;2.10;;;26.70;36.00;;;;;;5073691;28;20025;-76
2022/05/15 12:27:16;;;;;;;6.90;2.10;;;26.60;36.40;;;;;;5073169;28;20040;-76
2022/05/15 12:30:06;;;;;;;4.40;2.08;;;26.60;37.00;;;;;;5073944;28;20025;-77
2022/05/15 12:32:37;;;;;;;4.67;1.97;;;26.60;36.20;;;;;;5055615;28;20380;-76
2022/05/15 12:35:09;;;;;;;3.78;1.90;;;26.50;36.10;;;;;;5072195;28;20287;-75
2022/05/15 12:38:01;;;;;;;5.05;2.08;;;26.50;36.40;;;;;;5073293;28;20477;-77
2022/05/15 12:40:34;;;;;;;9.07;2.20;;;26.40;36.40;;;;;;5073569;28;20032;-77
2022/05/15 12:43:01;;;;;;;4.45;1.98;;;26.40;37.50;;;;;;5073214;28;20067;-77
2022/05/15 12:45:27;;;;;;;6.78;2.22;;;26.40;35.90;;;;;;5073420;28;20033;-75
2022/05/15 12:48:12;;;;;;;9.93;2.17;;;26.30;36.10;;;;;;5072798;28;20021;-77
2022/05/15 12:50:48;;;;;;;8.55;2.10;;;26.30;36.90;;;;;;5073523;28;20024;-77
2022/05/15 12:53:21;;;;;;;5.15;1.80;;;26.30;37.00;;;;;;5055449;28;20153;-75
2022/05/15 12:55:47;;;;;;;3.75;2.10;;;26.30;36.60;;;;;;5072666;28;20111;-78
2022/05/15 12:58:12;;;;;;;5.05;2.10;;;26.30;36.00;;;;;;5073275;28;20068;-76
2022/05/15 13:00:42;;;;;;;5.30;1.80;;;26.30;36.80;;;;;;5073127;28;20465;-77
2022/05/15 13:03:10;;;;;;;4.05;1.80;;;26.30;36.10;;;;;;5072628;28;20045;-76
2022/05/15 13:05:56;;;;;;;3.60;1.50;;;26.30;35.90;;;;;;5073226;28;20085;-77
2022/05/15 13:08:22;;;;;;;4.40;2.15;;;26.30;35.60;;;;;;5073448;28;20081;-75
2022/05/15 13:10:58;;;;;;;5.40;1.80;;;26.30;35.80;;;;;;5054521;28;20454;-76
2022/05/15 13:13:34;;;;;;;4.63;1.85;;;26.20;35.50;;;;;;5073148;28;20481;-76
2022/05/15 13:16:01;;;;;;;3.92;1.80;;;26.10;35.80;;;;;;5074577;28;20025;-75
2022/05/15 13:18:32;;;;;;;6.95;2.10;;;26.10;36.80;;;;;;5072377;28;20029;-74
2022/05/15 13:21:04;;;;;;;4.25;2.10;;;26.10;35.80;;;;;;5072281;28;20387;-75
2022/05/15 13:23:43;;;;;;;5.75;2.42;;;26.10;36.20;;;;;;5072600;28;20154;-75
2022/05/15 13:26:16;;;;;;;6.13;2.25;;;26.10;35.70;;;;;;5072082;28;20036;-74
2022/05/15 13:28:42;;;;;;;4.35;1.95;;;26.10;35.00;;;;;;5072736;28;20039;-76